sensor_id;sensor_type;location;lat;lon;timestamp;P1;durP1;ratioP1;P2;durP2;ratioP2
13048;SDS011;6591;51.446;5.404;2024-02-21T00:01:32;15.53;;;6.20;;
13048;SDS011;6591;51.446;5.404;2024-02-21T00:03:59;11.57;;;6.17;;
13048;SDS011;6591;51.446;5.404;2024-02-21T00:06:26;13.03;;;6.63;;
13048;SDS011;6591;51.446;5.404;2024-02-21T00:08:53;12.17;;;6.00;;
13048;SDS011;6591;51.446;5.404;2024-02-21T00:11:20;14.60;;;6.40;;
13048;SDS011;6591;51.446;5.404;2024-02-21T00:13:47;12.37;;;6.33;;
13048;SDS011;6591;51.446;5.404;2024-02-21T00:16:14;12.23;;;6.33;;
13048;SDS011;6591;51.446;5.404;2024-02-21T00:18:43;10.67;;;5.70;;
13048;SDS011;6591;51.446;5.404;2024-02-21T00:21:10;12.97;;;6.13;;
13048;SDS011;6591;51.446;5.404;2024-02-21T00:23:44;9.03;;;5.63;;
13048;SDS011;6591;51.446;5.404;2024-02-21T00:26:17;10.23;;;6.30;;
13048;SDS011;6591;51.446;5.404;2024-02-21T00:28:44;10.60;;;5.87;;
13048;SDS011;6591;51.446;5.404;2024-02-21T00:31:11;10.63;;;5.80;;
13048;SDS011;6591;51.446;5.404;2024-02-21T00:33:38;10.50;;;6.37;;
13048;SDS011;6591;51.446;5.404;2024-02-21T00:36:05;11.03;;;5.80;;
13048;SDS011;6591;51.446;5.404;2024-02-21T00:38:32;10.57;;;5.57;;
13048;SDS011;6591;51.446;5.404;2024-02-21T00:41:00;12.63;;;6.10;;
13048;SDS011;6591;51.446;5.404;2024-02-21T00:43:27;11.73;;;5.63;;
13048;SDS011;6591;51.446;5.404;2024-02-21T00:45:54;13.23;;;6.90;;
13048;SDS011;6591;51.446;5.404;2024-02-21T00:48:21;12.90;;;6.40;;
13048;SDS011;6591;51.446;5.404;2024-02-21T00:50:48;12.63;;;5.67;;
13048;SDS011;6591;51.446;5.404;2024-02-21T00:53:15;13.67;;;6.10;;
13048;SDS011;6591;51.446;5.404;2024-02-21T00:55:42;10.10;;;5.60;;
13048;SDS011;6591;51.446;5.404;2024-02-21T00:58:10;10.73;;;5.17;;
13048;SDS011;6591;51.446;5.404;2024-02-21T01:00:37;8.60;;;5.20;;
13048;SDS011;6591;51.446;5.404;2024-02-21T01:03:04;11.27;;;5.57;;
13048;SDS011;6591;51.446;5.404;2024-02-21T01:05:30;14.37;;;6.30;;
13048;SDS011;6591;51.446;5.404;2024-02-21T01:07:58;13.37;;;6.50;;
13048;SDS011;6591;51.446;5.404;2024-02-21T01:10:25;9.87;;;5.57;;
13048;SDS011;6591;51.446;5.404;2024-02-21T01:12:52;10.03;;;5.50;;
13048;SDS011;6591;51.446;5.404;2024-02-21T01:15:19;10.53;;;5.40;;
13048;SDS011;6591;51.446;5.404;2024-02-21T01:17:46;11.47;;;5.57;;
13048;SDS011;6591;51.446;5.404;2024-02-21T01:20:13;13.13;;;5.53;;
13048;SDS011;6591;51.446;5.404;2024-02-21T01:22:40;10.17;;;5.10;;
13048;SDS011;6591;51.446;5.404;2024-02-21T01:25:08;14.00;;;6.10;;
13048;SDS011;6591;51.446;5.404;2024-02-21T01:27:35;10.60;;;5.77;;
13048;SDS011;6591;51.446;5.404;2024-02-21T01:30:02;11.87;;;5.37;;
13048;SDS011;6591;51.446;5.404;2024-02-21T01:32:29;11.17;;;5.63;;
13048;SDS011;6591;51.446;5.404;2024-02-21T01:34:57;11.73;;;5.90;;
13048;SDS011;6591;51.446;5.404;2024-02-21T01:37:24;10.23;;;5.50;;
13048;SDS011;6591;51.446;5.404;2024-02-21T01:39:51;9.37;;;5.50;;
13048;SDS011;6591;51.446;5.404;2024-02-21T01:42:19;10.53;;;5.10;;
13048;SDS011;6591;51.446;5.404;2024-02-21T01:44:45;10.23;;;5.50;;
13048;SDS011;6591;51.446;5.404;2024-02-21T01:47:13;12.57;;;5.73;;
13048;SDS011;6591;51.446;5.404;2024-02-21T01:49:41;9.77;;;5.40;;
13048;SDS011;6591;51.446;5.404;2024-02-21T01:52:08;10.40;;;4.97;;
13048;SDS011;6591;51.446;5.404;2024-02-21T01:54:40;7.03;;;4.70;;
13048;SDS011;6591;51.446;5.404;2024-02-21T01:57:07;12.20;;;5.40;;
13048;SDS011;6591;51.446;5.404;2024-02-21T01:59:34;8.80;;;5.13;;
13048;SDS011;6591;51.446;5.404;2024-02-21T02:02:02;9.93;;;5.60;;
13048;SDS011;6591;51.446;5.404;2024-02-21T02:04:29;12.33;;;5.10;;
13048;SDS011;6591;51.446;5.404;2024-02-21T02:06:57;8.70;;;4.80;;
13048;SDS011;6591;51.446;5.404;2024-02-21T02:09:30;9.80;;;5.10;;
13048;SDS011;6591;51.446;5.404;2024-02-21T02:11:57;8.37;;;4.83;;
13048;SDS011;6591;51.446;5.404;2024-02-21T02:14:25;10.17;;;5.00;;
13048;SDS011;6591;51.446;5.404;2024-02-21T02:16:52;8.40;;;4.83;;
13048;SDS011;6591;51.446;5.404;2024-02-21T02:19:20;7.80;;;4.90;;
13048;SDS011;6591;51.446;5.404;2024-02-21T02:21:49;8.07;;;5.03;;
13048;SDS011;6591;51.446;5.404;2024-02-21T02:24:24;7.97;;;4.23;;
13048;SDS011;6591;51.446;5.404;2024-02-21T02:26:54;7.83;;;4.13;;
13048;SDS011;6591;51.446;5.404;2024-02-21T02:29:21;8.93;;;4.87;;
13048;SDS011;6591;51.446;5.404;2024-02-21T02:31:48;9.73;;;4.70;;
13048;SDS011;6591;51.446;5.404;2024-02-21T02:34:16;7.40;;;4.60;;
13048;SDS011;6591;51.446;5.404;2024-02-21T02:36:43;6.37;;;4.53;;
13048;SDS011;6591;51.446;5.404;2024-02-21T02:39:10;6.50;;;4.27;;
13048;SDS011;6591;51.446;5.404;2024-02-21T02:41:37;9.07;;;4.47;;
13048;SDS011;6591;51.446;5.404;2024-02-21T02:44:04;9.70;;;4.63;;
13048;SDS011;6591;51.446;5.404;2024-02-21T02:46:31;8.33;;;4.40;;
13048;SDS011;6591;51.446;5.404;2024-02-21T02:48:58;7.27;;;4.70;;
13048;SDS011;6591;51.446;5.404;2024-02-21T02:51:26;9.10;;;4.87;;
13048;SDS011;6591;51.446;5.404;2024-02-21T02:53:53;7.80;;;4.20;;
13048;SDS011;6591;51.446;5.404;2024-02-21T02:56:20;6.67;;;4.37;;
13048;SDS011;6591;51.446;5.404;2024-02-21T02:58:47;8.37;;;4.20;;
13048;SDS011;6591;51.446;5.404;2024-02-21T03:01:14;6.20;;;4.10;;
13048;SDS011;6591;51.446;5.404;2024-02-21T03:03:41;6.90;;;3.90;;
13048;SDS011;6591;51.446;5.404;2024-02-21T03:06:08;4.77;;;3.87;;
13048;SDS011;6591;51.446;5.404;2024-02-21T03:08:35;6.57;;;4.10;;
13048;SDS011;6591;51.446;5.404;2024-02-21T03:11:02;7.40;;;4.30;;
13048;SDS011;6591;51.446;5.404;2024-02-21T03:13:30;6.07;;;3.90;;
13048;SDS011;6591;51.446;5.404;2024-02-21T03:15:57;8.93;;;3.80;;
13048;SDS011;6591;51.446;5.404;2024-02-21T03:18:24;7.60;;;3.77;;
13048;SDS011;6591;51.446;5.404;2024-02-21T03:20:51;10.03;;;4.73;;
13048;SDS011;6591;51.446;5.404;2024-02-21T03:23:18;7.90;;;4.20;;
13048;SDS011;6591;51.446;5.404;2024-02-21T03:25:47;6.10;;;3.73;;
13048;SDS011;6591;51.446;5.404;2024-02-21T03:28:14;7.47;;;3.87;;
13048;SDS011;6591;51.446;5.404;2024-02-21T03:30:42;7.80;;;4.00;;
13048;SDS011;6591;51.446;5.404;2024-02-21T03:33:09;8.17;;;4.20;;
13048;SDS011;6591;51.446;5.404;2024-02-21T03:35:37;7.20;;;4.40;;
13048;SDS011;6591;51.446;5.404;2024-02-21T03:38:04;7.17;;;3.73;;
13048;SDS011;6591;51.446;5.404;2024-02-21T03:40:31;7.10;;;4.37;;
13048;SDS011;6591;51.446;5.404;2024-02-21T03:42:58;7.53;;;4.13;;
13048;SDS011;6591;51.446;5.404;2024-02-21T03:45:25;7.77;;;4.20;;
13048;SDS011;6591;51.446;5.404;2024-02-21T03:47:52;11.40;;;4.80;;
13048;SDS011;6591;51.446;5.404;2024-02-21T03:50:19;7.93;;;4.60;;
13048;SDS011;6591;51.446;5.404;2024-02-21T03:52:46;10.60;;;4.60;;
13048;SDS011;6591;51.446;5.404;2024-02-21T03:55:14;7.93;;;4.07;;
13048;SDS011;6591;51.446;5.404;2024-02-21T03:57:41;7.40;;;3.73;;
13048;SDS011;6591;51.446;5.404;2024-02-21T04:00:08;5.50;;;3.93;;
13048;SDS011;6591;51.446;5.404;2024-02-21T04:02:37;6.90;;;4.10;;
13048;SDS011;6591;51.446;5.404;2024-02-21T04:05:04;7.23;;;4.67;;
13048;SDS011;6591;51.446;5.404;2024-02-21T04:07:32;8.70;;;4.73;;
13048;SDS011;6591;51.446;5.404;2024-02-21T04:09:59;7.73;;;4.00;;
13048;SDS011;6591;51.446;5.404;2024-02-21T04:12:27;8.73;;;4.40;;
13048;SDS011;6591;51.446;5.404;2024-02-21T04:14:53;7.73;;;4.77;;
13048;SDS011;6591;51.446;5.404;2024-02-21T04:17:20;8.37;;;5.20;;
13048;SDS011;6591;51.446;5.404;2024-02-21T04:19:48;8.00;;;5.63;;
13048;SDS011;6591;51.446;5.404;2024-02-21T04:22:15;7.73;;;4.80;;
13048;SDS011;6591;51.446;5.404;2024-02-21T04:24:42;9.40;;;5.87;;
13048;SDS011;6591;51.446;5.404;2024-02-21T04:27:09;10.83;;;6.03;;
13048;SDS011;6591;51.446;5.404;2024-02-21T04:29:36;10.27;;;5.23;;
13048;SDS011;6591;51.446;5.404;2024-02-21T04:32:03;8.63;;;5.00;;
13048;SDS011;6591;51.446;5.404;2024-02-21T04:34:31;8.50;;;5.60;;
13048;SDS011;6591;51.446;5.404;2024-02-21T04:36:58;11.80;;;5.63;;
13048;SDS011;6591;51.446;5.404;2024-02-21T04:39:25;10.57;;;5.97;;
13048;SDS011;6591;51.446;5.404;2024-02-21T04:41:52;14.17;;;6.30;;
13048;SDS011;6591;51.446;5.404;2024-02-21T04:44:19;12.53;;;6.23;;
13048;SDS011;6591;51.446;5.404;2024-02-21T04:46:48;9.67;;;6.00;;
13048;SDS011;6591;51.446;5.404;2024-02-21T04:49:15;9.57;;;5.80;;
13048;SDS011;6591;51.446;5.404;2024-02-21T04:51:43;7.67;;;5.97;;
13048;SDS011;6591;51.446;5.404;2024-02-21T04:54:10;11.00;;;6.33;;
13048;SDS011;6591;51.446;5.404;2024-02-21T04:56:38;10.17;;;6.30;;
13048;SDS011;6591;51.446;5.404;2024-02-21T04:59:05;9.50;;;6.07;;
13048;SDS011;6591;51.446;5.404;2024-02-21T05:01:32;9.43;;;5.90;;
13048;SDS011;6591;51.446;5.404;2024-02-21T05:03:59;10.83;;;5.90;;
13048;SDS011;6591;51.446;5.404;2024-02-21T05:06:26;9.07;;;5.70;;
13048;SDS011;6591;51.446;5.404;2024-02-21T05:08:53;8.50;;;5.30;;
13048;SDS011;6591;51.446;5.404;2024-02-21T05:11:21;9.13;;;6.20;;
13048;SDS011;6591;51.446;5.404;2024-02-21T05:13:48;8.77;;;5.83;;
13048;SDS011;6591;51.446;5.404;2024-02-21T05:16:17;13.43;;;5.83;;
13048;SDS011;6591;51.446;5.404;2024-02-21T05:18:46;9.93;;;5.97;;
13048;SDS011;6591;51.446;5.404;2024-02-21T05:21:13;13.07;;;5.50;;
13048;SDS011;6591;51.446;5.404;2024-02-21T05:23:40;8.27;;;5.40;;
13048;SDS011;6591;51.446;5.404;2024-02-21T05:26:07;9.03;;;5.70;;
13048;SDS011;6591;51.446;5.404;2024-02-21T05:28:35;11.80;;;5.43;;
13048;SDS011;6591;51.446;5.404;2024-02-21T05:31:02;10.03;;;5.67;;
13048;SDS011;6591;51.446;5.404;2024-02-21T05:33:29;10.43;;;5.83;;
13048;SDS011;6591;51.446;5.404;2024-02-21T05:35:57;8.17;;;5.23;;
13048;SDS011;6591;51.446;5.404;2024-02-21T05:38:23;11.73;;;6.57;;
13048;SDS011;6591;51.446;5.404;2024-02-21T05:40:51;9.63;;;6.23;;
13048;SDS011;6591;51.446;5.404;2024-02-21T05:43:18;10.87;;;6.10;;
13048;SDS011;6591;51.446;5.404;2024-02-21T05:45:45;12.37;;;6.53;;
13048;SDS011;6591;51.446;5.404;2024-02-21T05:48:12;10.87;;;6.40;;
13048;SDS011;6591;51.446;5.404;2024-02-21T05:50:39;10.60;;;6.17;;
13048;SDS011;6591;51.446;5.404;2024-02-21T05:53:06;9.67;;;6.00;;
13048;SDS011;6591;51.446;5.404;2024-02-21T05:55:33;11.10;;;5.70;;
13048;SDS011;6591;51.446;5.404;2024-02-21T05:58:01;8.80;;;5.20;;
13048;SDS011;6591;51.446;5.404;2024-02-21T06:00:28;9.57;;;5.80;;
13048;SDS011;6591;51.446;5.404;2024-02-21T06:02:56;11.53;;;5.70;;
13048;SDS011;6591;51.446;5.404;2024-02-21T06:05:23;9.80;;;5.53;;
13048;SDS011;6591;51.446;5.404;2024-02-21T06:07:50;10.80;;;5.57;;
13048;SDS011;6591;51.446;5.404;2024-02-21T06:10:17;11.30;;;6.07;;
13048;SDS011;6591;51.446;5.404;2024-02-21T06:12:44;8.07;;;5.73;;
13048;SDS011;6591;51.446;5.404;2024-02-21T06:15:11;7.90;;;6.10;;
13048;SDS011;6591;51.446;5.404;2024-02-21T06:17:38;8.30;;;5.97;;
13048;SDS011;6591;51.446;5.404;2024-02-21T06:20:06;11.53;;;6.17;;
13048;SDS011;6591;51.446;5.404;2024-02-21T06:22:34;9.10;;;5.80;;
13048;SDS011;6591;51.446;5.404;2024-02-21T06:25:01;9.33;;;5.90;;
13048;SDS011;6591;51.446;5.404;2024-02-21T06:27:28;9.60;;;6.10;;
13048;SDS011;6591;51.446;5.404;2024-02-21T06:29:55;9.77;;;5.63;;
13048;SDS011;6591;51.446;5.404;2024-02-21T06:32:22;9.63;;;6.10;;
13048;SDS011;6591;51.446;5.404;2024-02-21T06:34:49;9.23;;;6.00;;
13048;SDS011;6591;51.446;5.404;2024-02-21T06:37:16;8.37;;;6.17;;
13048;SDS011;6591;51.446;5.404;2024-02-21T06:39:43;11.47;;;6.97;;
13048;SDS011;6591;51.446;5.404;2024-02-21T06:42:10;10.70;;;6.40;;
13048;SDS011;6591;51.446;5.404;2024-02-21T06:44:37;9.87;;;6.53;;
13048;SDS011;6591;51.446;5.404;2024-02-21T06:47:07;9.50;;;6.43;;
13048;SDS011;6591;51.446;5.404;2024-02-21T06:49:35;15.17;;;6.77;;
13048;SDS011;6591;51.446;5.404;2024-02-21T06:52:04;8.07;;;5.97;;
13048;SDS011;6591;51.446;5.404;2024-02-21T06:54:31;10.47;;;6.87;;
13048;SDS011;6591;51.446;5.404;2024-02-21T06:56:59;9.63;;;7.07;;
13048;SDS011;6591;51.446;5.404;2024-02-21T06:59:26;11.70;;;6.63;;
13048;SDS011;6591;51.446;5.404;2024-02-21T07:01:53;13.40;;;7.70;;
13048;SDS011;6591;51.446;5.404;2024-02-21T07:04:24;11.47;;;6.83;;
13048;SDS011;6591;51.446;5.404;2024-02-21T07:06:51;10.13;;;7.43;;
13048;SDS011;6591;51.446;5.404;2024-02-21T07:09:18;11.40;;;7.57;;
13048;SDS011;6591;51.446;5.404;2024-02-21T07:11:45;8.57;;;6.27;;
13048;SDS011;6591;51.446;5.404;2024-02-21T07:14:14;10.83;;;6.80;;
13048;SDS011;6591;51.446;5.404;2024-02-21T07:16:42;11.90;;;6.83;;
13048;SDS011;6591;51.446;5.404;2024-02-21T07:19:09;12.23;;;6.93;;
13048;SDS011;6591;51.446;5.404;2024-02-21T07:21:36;11.27;;;7.10;;
13048;SDS011;6591;51.446;5.404;2024-02-21T07:24:08;12.20;;;6.77;;
13048;SDS011;6591;51.446;5.404;2024-02-21T07:26:35;11.13;;;6.93;;
13048;SDS011;6591;51.446;5.404;2024-02-21T07:29:02;9.40;;;6.43;;
13048;SDS011;6591;51.446;5.404;2024-02-21T07:31:29;9.43;;;6.03;;
13048;SDS011;6591;51.446;5.404;2024-02-21T07:33:56;11.57;;;6.53;;
13048;SDS011;6591;51.446;5.404;2024-02-21T07:36:27;10.37;;;6.43;;
13048;SDS011;6591;51.446;5.404;2024-02-21T07:38:58;8.57;;;6.13;;
13048;SDS011;6591;51.446;5.404;2024-02-21T07:41:25;10.77;;;6.87;;
13048;SDS011;6591;51.446;5.404;2024-02-21T07:43:55;10.87;;;6.67;;
13048;SDS011;6591;51.446;5.404;2024-02-21T07:46:22;9.10;;;6.40;;
13048;SDS011;6591;51.446;5.404;2024-02-21T07:48:50;9.60;;;6.77;;
13048;SDS011;6591;51.446;5.404;2024-02-21T07:51:17;9.63;;;6.57;;
13048;SDS011;6591;51.446;5.404;2024-02-21T07:53:46;10.40;;;6.03;;
13048;SDS011;6591;51.446;5.404;2024-02-21T07:56:14;11.00;;;5.90;;
13048;SDS011;6591;51.446;5.404;2024-02-21T07:58:41;8.87;;;5.97;;
13048;SDS011;6591;51.446;5.404;2024-02-21T08:01:10;8.47;;;5.87;;
13048;SDS011;6591;51.446;5.404;2024-02-21T08:03:37;8.17;;;5.60;;
13048;SDS011;6591;51.446;5.404;2024-02-21T08:06:04;6.70;;;5.20;;
13048;SDS011;6591;51.446;5.404;2024-02-21T08:08:32;9.97;;;5.10;;
13048;SDS011;6591;51.446;5.404;2024-02-21T08:10:59;8.30;;;5.47;;
13048;SDS011;6591;51.446;5.404;2024-02-21T08:13:26;7.20;;;5.37;;
13048;SDS011;6591;51.446;5.404;2024-02-21T08:15:55;6.77;;;5.07;;
13048;SDS011;6591;51.446;5.404;2024-02-21T08:18:23;7.90;;;5.10;;
13048;SDS011;6591;51.446;5.404;2024-02-21T08:20:50;6.77;;;4.57;;
13048;SDS011;6591;51.446;5.404;2024-02-21T08:23:18;6.80;;;5.00;;
13048;SDS011;6591;51.446;5.404;2024-02-21T08:25:45;6.70;;;4.60;;
13048;SDS011;6591;51.446;5.404;2024-02-21T08:28:13;7.27;;;5.00;;
13048;SDS011;6591;51.446;5.404;2024-02-21T08:30:40;6.03;;;4.60;;
13048;SDS011;6591;51.446;5.404;2024-02-21T08:33:10;5.90;;;4.40;;
13048;SDS011;6591;51.446;5.404;2024-02-21T08:35:37;6.17;;;4.40;;
13048;SDS011;6591;51.446;5.404;2024-02-21T08:38:04;6.27;;;4.40;;
13048;SDS011;6591;51.446;5.404;2024-02-21T08:40:32;5.33;;;4.20;;
13048;SDS011;6591;51.446;5.404;2024-02-21T08:43:01;6.80;;;4.40;;
13048;SDS011;6591;51.446;5.404;2024-02-21T08:45:29;6.17;;;4.80;;
13048;SDS011;6591;51.446;5.404;2024-02-21T08:47:56;5.77;;;4.57;;
13048;SDS011;6591;51.446;5.404;2024-02-21T08:50:24;6.90;;;5.03;;
13048;SDS011;6591;51.446;5.404;2024-02-21T08:52:55;6.73;;;5.20;;
13048;SDS011;6591;51.446;5.404;2024-02-21T08:55:24;8.63;;;5.63;;
13048;SDS011;6591;51.446;5.404;2024-02-21T08:57:51;6.87;;;5.13;;
13048;SDS011;6591;51.446;5.404;2024-02-21T09:00:19;6.13;;;5.10;;
13048;SDS011;6591;51.446;5.404;2024-02-21T09:02:50;7.53;;;5.13;;
13048;SDS011;6591;51.446;5.404;2024-02-21T09:05:17;7.17;;;5.13;;
13048;SDS011;6591;51.446;5.404;2024-02-21T09:07:45;6.90;;;5.23;;
13048;SDS011;6591;51.446;5.404;2024-02-21T09:10:13;6.67;;;5.23;;
13048;SDS011;6591;51.446;5.404;2024-02-21T09:12:40;5.77;;;4.77;;
13048;SDS011;6591;51.446;5.404;2024-02-21T09:15:07;6.17;;;5.57;;
13048;SDS011;6591;51.446;5.404;2024-02-21T09:17:35;5.77;;;5.20;;
13048;SDS011;6591;51.446;5.404;2024-02-21T09:20:02;6.97;;;5.70;;
13048;SDS011;6591;51.446;5.404;2024-02-21T09:22:30;8.93;;;6.53;;
13048;SDS011;6591;51.446;5.404;2024-02-21T09:25:00;10.07;;;6.23;;
13048;SDS011;6591;51.446;5.404;2024-02-21T09:27:29;6.23;;;5.40;;
13048;SDS011;6591;51.446;5.404;2024-02-21T09:29:57;9.87;;;6.17;;
13048;SDS011;6591;51.446;5.404;2024-02-21T09:32:24;8.40;;;6.47;;
13048;SDS011;6591;51.446;5.404;2024-02-21T09:34:52;7.13;;;5.73;;
13048;SDS011;6591;51.446;5.404;2024-02-21T09:37:25;9.03;;;6.13;;
13048;SDS011;6591;51.446;5.404;2024-02-21T09:39:52;7.90;;;5.33;;
13048;SDS011;6591;51.446;5.404;2024-02-21T09:42:20;8.10;;;5.83;;
13048;SDS011;6591;51.446;5.404;2024-02-21T09:44:48;7.70;;;5.40;;
13048;SDS011;6591;51.446;5.404;2024-02-21T09:47:22;8.80;;;5.90;;
13048;SDS011;6591;51.446;5.404;2024-02-21T09:50:05;6.70;;;5.70;;
13048;SDS011;6591;51.446;5.404;2024-02-21T09:52:33;8.47;;;5.57;;
13048;SDS011;6591;51.446;5.404;2024-02-21T09:55:01;9.00;;;5.47;;
13048;SDS011;6591;51.446;5.404;2024-02-21T09:57:31;7.53;;;5.13;;
13048;SDS011;6591;51.446;5.404;2024-02-21T09:59:58;7.63;;;5.00;;
13048;SDS011;6591;51.446;5.404;2024-02-21T10:02:39;10.73;;;4.83;;
13048;SDS011;6591;51.446;5.404;2024-02-21T10:05:06;7.73;;;4.63;;
13048;SDS011;6591;51.446;5.404;2024-02-21T10:07:35;7.20;;;4.17;;
13048;SDS011;6591;51.446;5.404;2024-02-21T10:10:02;5.63;;;4.30;;
13048;SDS011;6591;51.446;5.404;2024-02-21T10:12:30;7.17;;;4.30;;
13048;SDS011;6591;51.446;5.404;2024-02-21T10:15:02;7.00;;;4.63;;
13048;SDS011;6591;51.446;5.404;2024-02-21T10:17:32;6.47;;;4.43;;
13048;SDS011;6591;51.446;5.404;2024-02-21T10:20:06;5.80;;;4.20;;
13048;SDS011;6591;51.446;5.404;2024-02-21T10:22:38;6.13;;;3.80;;
13048;SDS011;6591;51.446;5.404;2024-02-21T10:25:07;6.17;;;4.17;;
13048;SDS011;6591;51.446;5.404;2024-02-21T10:27:43;8.13;;;4.43;;
13048;SDS011;6591;51.446;5.404;2024-02-21T10:30:14;7.17;;;4.13;;
13048;SDS011;6591;51.446;5.404;2024-02-21T10:32:49;5.77;;;3.93;;
13048;SDS011;6591;51.446;5.404;2024-02-21T10:35:30;6.60;;;4.03;;
13048;SDS011;6591;51.446;5.404;2024-02-21T10:38:00;4.87;;;3.30;;
13048;SDS011;6591;51.446;5.404;2024-02-21T10:40:28;6.40;;;3.63;;
13048;SDS011;6591;51.446;5.404;2024-02-21T10:42:58;4.83;;;3.57;;
13048;SDS011;6591;51.446;5.404;2024-02-21T10:45:30;5.40;;;3.83;;
13048;SDS011;6591;51.446;5.404;2024-02-21T10:48:14;4.37;;;3.70;;
13048;SDS011;6591;51.446;5.404;2024-02-21T10:50:47;5.60;;;4.00;;
13048;SDS011;6591;51.446;5.404;2024-02-21T10:59:04;6.77;;;3.43;;
13048;SDS011;6591;51.446;5.404;2024-02-21T11:01:33;6.10;;;4.00;;
13048;SDS011;6591;51.446;5.404;2024-02-21T11:04:07;6.00;;;3.53;;
13048;SDS011;6591;51.446;5.404;2024-02-21T11:06:38;7.00;;;3.70;;
13048;SDS011;6591;51.446;5.404;2024-02-21T11:09:11;5.90;;;3.80;;
13048;SDS011;6591;51.446;5.404;2024-02-21T11:11:43;5.77;;;3.37;;
13048;SDS011;6591;51.446;5.404;2024-02-21T11:14:17;6.17;;;3.53;;
13048;SDS011;6591;51.446;5.404;2024-02-21T11:16:47;4.90;;;3.27;;
13048;SDS011;6591;51.446;5.404;2024-02-21T11:19:21;5.50;;;3.50;;
13048;SDS011;6591;51.446;5.404;2024-02-21T11:21:51;5.63;;;3.43;;
13048;SDS011;6591;51.446;5.404;2024-02-21T11:24:29;5.13;;;3.13;;
13048;SDS011;6591;51.446;5.404;2024-02-21T11:27:16;4.87;;;3.50;;
13048;SDS011;6591;51.446;5.404;2024-02-21T11:29:56;8.07;;;3.63;;
13048;SDS011;6591;51.446;5.404;2024-02-21T11:32:25;6.10;;;3.40;;
13048;SDS011;6591;51.446;5.404;2024-02-21T11:37:33;5.27;;;3.20;;
13048;SDS011;6591;51.446;5.404;2024-02-21T11:40:05;5.10;;;3.47;;
13048;SDS011;6591;51.446;5.404;2024-02-21T11:42:38;7.50;;;3.40;;
13048;SDS011;6591;51.446;5.404;2024-02-21T11:45:07;4.53;;;3.03;;
13048;SDS011;6591;51.446;5.404;2024-02-21T11:47:37;7.37;;;3.47;;
13048;SDS011;6591;51.446;5.404;2024-02-21T11:50:09;7.07;;;3.30;;
13048;SDS011;6591;51.446;5.404;2024-02-21T11:52:38;6.03;;;3.60;;
13048;SDS011;6591;51.446;5.404;2024-02-21T11:55:05;7.73;;;3.57;;
13048;SDS011;6591;51.446;5.404;2024-02-21T11:57:35;6.83;;;3.80;;
13048;SDS011;6591;51.446;5.404;2024-02-21T12:00:14;5.57;;;3.63;;
13048;SDS011;6591;51.446;5.404;2024-02-21T12:02:43;5.63;;;3.57;;
13048;SDS011;6591;51.446;5.404;2024-02-21T12:05:14;6.90;;;3.27;;
13048;SDS011;6591;51.446;5.404;2024-02-21T12:07:41;5.63;;;3.27;;
13048;SDS011;6591;51.446;5.404;2024-02-21T12:10:10;5.93;;;3.57;;
13048;SDS011;6591;51.446;5.404;2024-02-21T12:12:38;6.93;;;3.70;;
13048;SDS011;6591;51.446;5.404;2024-02-21T12:15:06;5.63;;;3.17;;
13048;SDS011;6591;51.446;5.404;2024-02-21T12:17:39;4.70;;;2.87;;
13048;SDS011;6591;51.446;5.404;2024-02-21T12:20:07;8.53;;;4.03;;
13048;SDS011;6591;51.446;5.404;2024-02-21T12:22:36;6.50;;;3.20;;
13048;SDS011;6591;51.446;5.404;2024-02-21T12:25:16;5.10;;;2.83;;
13048;SDS011;6591;51.446;5.404;2024-02-21T12:27:49;6.67;;;3.10;;
13048;SDS011;6591;51.446;5.404;2024-02-21T12:30:16;4.87;;;2.70;;
13048;SDS011;6591;51.446;5.404;2024-02-21T12:32:43;5.67;;;3.10;;
13048;SDS011;6591;51.446;5.404;2024-02-21T12:35:10;6.23;;;3.03;;
13048;SDS011;6591;51.446;5.404;2024-02-21T12:37:38;6.23;;;3.13;;
13048;SDS011;6591;51.446;5.404;2024-02-21T12:40:06;4.37;;;3.20;;
13048;SDS011;6591;51.446;5.404;2024-02-21T12:42:34;4.20;;;2.87;;
13048;SDS011;6591;51.446;5.404;2024-02-21T12:45:02;6.60;;;3.47;;
13048;SDS011;6591;51.446;5.404;2024-02-21T12:47:30;6.47;;;2.90;;
13048;SDS011;6591;51.446;5.404;2024-02-21T12:49:57;8.77;;;2.87;;
13048;SDS011;6591;51.446;5.404;2024-02-21T12:52:25;5.77;;;3.80;;
13048;SDS011;6591;51.446;5.404;2024-02-21T12:54:52;6.67;;;3.23;;
13048;SDS011;6591;51.446;5.404;2024-02-21T12:57:22;4.73;;;2.77;;
13048;SDS011;6591;51.446;5.404;2024-02-21T12:59:53;4.57;;;3.10;;
13048;SDS011;6591;51.446;5.404;2024-02-21T13:02:20;7.40;;;3.23;;
13048;SDS011;6591;51.446;5.404;2024-02-21T13:04:48;5.57;;;2.80;;
13048;SDS011;6591;51.446;5.404;2024-02-21T13:07:16;4.10;;;2.70;;
13048;SDS011;6591;51.446;5.404;2024-02-21T13:09:43;4.90;;;2.83;;
13048;SDS011;6591;51.446;5.404;2024-02-21T13:12:10;7.33;;;2.80;;
13048;SDS011;6591;51.446;5.404;2024-02-21T13:14:38;5.63;;;3.10;;
13048;SDS011;6591;51.446;5.404;2024-02-21T13:17:05;6.03;;;3.00;;
13048;SDS011;6591;51.446;5.404;2024-02-21T13:19:33;6.37;;;2.77;;
13048;SDS011;6591;51.446;5.404;2024-02-21T13:22:00;5.37;;;2.50;;
13048;SDS011;6591;51.446;5.404;2024-02-21T13:24:29;4.83;;;2.70;;
13048;SDS011;6591;51.446;5.404;2024-02-21T13:26:57;3.13;;;2.63;;
13048;SDS011;6591;51.446;5.404;2024-02-21T13:29:25;4.67;;;2.57;;
13048;SDS011;6591;51.446;5.404;2024-02-21T13:31:51;3.37;;;2.50;;
13048;SDS011;6591;51.446;5.404;2024-02-21T13:34:19;4.00;;;2.13;;
13048;SDS011;6591;51.446;5.404;2024-02-21T13:36:46;2.27;;;1.83;;
13048;SDS011;6591;51.446;5.404;2024-02-21T13:39:13;6.43;;;2.50;;
13048;SDS011;6591;51.446;5.404;2024-02-21T13:41:42;6.40;;;2.13;;
13048;SDS011;6591;51.446;5.404;2024-02-21T13:44:10;4.27;;;2.30;;
13048;SDS011;6591;51.446;5.404;2024-02-21T13:46:39;3.60;;;2.27;;
13048;SDS011;6591;51.446;5.404;2024-02-21T13:49:06;3.93;;;2.10;;
13048;SDS011;6591;51.446;5.404;2024-02-21T13:51:34;3.23;;;2.10;;
13048;SDS011;6591;51.446;5.404;2024-02-21T13:54:04;4.03;;;2.30;;
13048;SDS011;6591;51.446;5.404;2024-02-21T13:56:33;3.37;;;2.17;;
13048;SDS011;6591;51.446;5.404;2024-02-21T13:59:01;2.70;;;2.10;;
13048;SDS011;6591;51.446;5.404;2024-02-21T14:01:28;7.23;;;2.93;;
13048;SDS011;6591;51.446;5.404;2024-02-21T14:03:56;7.70;;;2.70;;
13048;SDS011;6591;51.446;5.404;2024-02-21T14:06:22;3.50;;;2.20;;
13048;SDS011;6591;51.446;5.404;2024-02-21T14:08:50;3.20;;;2.10;;
13048;SDS011;6591;51.446;5.404;2024-02-21T14:11:17;4.10;;;2.33;;
13048;SDS011;6591;51.446;5.404;2024-02-21T14:13:44;4.23;;;2.47;;
13048;SDS011;6591;51.446;5.404;2024-02-21T14:16:11;6.50;;;2.37;;
13048;SDS011;6591;51.446;5.404;2024-02-21T14:18:41;4.67;;;2.50;;
13048;SDS011;6591;51.446;5.404;2024-02-21T14:21:09;4.57;;;2.53;;
13048;SDS011;6591;51.446;5.404;2024-02-21T14:23:37;4.63;;;2.60;;
13048;SDS011;6591;51.446;5.404;2024-02-21T14:26:05;3.40;;;2.50;;
13048;SDS011;6591;51.446;5.404;2024-02-21T14:28:33;6.03;;;2.87;;
13048;SDS011;6591;51.446;5.404;2024-02-21T14:31:01;3.17;;;2.27;;
13048;SDS011;6591;51.446;5.404;2024-02-21T14:33:30;4.40;;;2.60;;
13048;SDS011;6591;51.446;5.404;2024-02-21T14:35:57;6.93;;;2.73;;
13048;SDS011;6591;51.446;5.404;2024-02-21T14:38:25;5.23;;;2.43;;
13048;SDS011;6591;51.446;5.404;2024-02-21T14:40:53;6.03;;;2.70;;
13048;SDS011;6591;51.446;5.404;2024-02-21T14:43:21;3.97;;;2.30;;
13048;SDS011;6591;51.446;5.404;2024-02-21T14:45:48;3.70;;;2.70;;
13048;SDS011;6591;51.446;5.404;2024-02-21T14:48:16;7.80;;;2.80;;
13048;SDS011;6591;51.446;5.404;2024-02-21T14:50:43;4.37;;;2.73;;
13048;SDS011;6591;51.446;5.404;2024-02-21T14:53:10;3.60;;;2.30;;
13048;SDS011;6591;51.446;5.404;2024-02-21T14:55:38;4.67;;;2.60;;
13048;SDS011;6591;51.446;5.404;2024-02-21T14:58:05;2.77;;;2.23;;
13048;SDS011;6591;51.446;5.404;2024-02-21T15:00:33;4.20;;;2.57;;
13048;SDS011;6591;51.446;5.404;2024-02-21T15:03:01;5.73;;;2.57;;
13048;SDS011;6591;51.446;5.404;2024-02-21T15:05:29;4.73;;;2.73;;
13048;SDS011;6591;51.446;5.404;2024-02-21T15:07:57;4.80;;;2.60;;
13048;SDS011;6591;51.446;5.404;2024-02-21T15:10:24;3.63;;;2.50;;
13048;SDS011;6591;51.446;5.404;2024-02-21T15:12:53;3.20;;;2.57;;